Yverdon-les-Bains, Switzerland

04:56 CET le 22 février 2017 (GMT +0100)
Place Bel-Air | | Change Station

Alt. 1433 ft 46.78 °N, 6.64 °E | Updated 4 minutes ago

Couvert
Couvert
48.2 ° F
Paraît 48 ° F
N
1.9
Vent Variable Vent de SO
Gusts 4.3 mph

Aujourd'hui
Haut(e) -- | Bas -- ° F
--% Risque de précip.
Hier
Haut(e) -- | Bas -- ° F
Precip. -- pouce
Pression 30.09 pouce
Visibilité 6.2 Miles terrestres
Nuages Couvert 4600 ft
Refroidissement éolien 48 ° F
Point de rosée 44 ° F
Humidité 84%
Précipitations 0.00 pouce
Profondeur de la couche neigeuse Non disponible.
7:25 AM 6:08 PM
Lune descendante, 20% visible
METAR LSMP 220350Z AUTO VRB02KT 9999NDV OVC046 09/06 Q1019 RMK
Pression 30.09 pouce
Visibilité 6.2 Miles terrestres
Nuages Couvert 4600 ft
Refroidissement éolien 48 ° F
Point de rosée 44 ° F
Humidité 84%
Précipitations 0.00 pouce
Profondeur de la couche neigeuse Non disponible.
7:25 AM 6:08 PM
Lune descendante, 20% visible
METAR LSMP 220350Z AUTO VRB02KT 9999NDV OVC046 09/06 Q1019 RMK

Get Your Daily Forecast Email!

Thanks for signing up!

Be on the lookout for a verification email in your inbox.

You'll start receiving the daily forecast at 8 AM.

×

10-Day Weather Forecast

×

Almanac

Astronomie

Feb. 22, 2017 Lever Coucher
Temps réel
Crépuscule civil
Crépuscule nautique
Crépuscule astronomique
Lune
Durée de lumière visible
Longueur du jour
Tomorrow will be .
, % of the Moon is Illuminated

Extrêmes aujourd'hui

Country Highs Country Lows

Community

WunderPhotos

Upload Photos

1,962,540 Photos téléchargées !

WunderBlog® & News

Nearby

Qualité de l'air

  Qualité de l'air Indice de la qualité de l'air Polluant
Not available.

Épaisseur de neige

Station Depth Altitude

Activité sismique

Ville Distance Mag. Time & Date
Minimum magnitude displayed is 2.5.

Températures des eaux côtières

Lieu Température

Stations

Stations météo à proximité

Emplacement de la station Température Refroidissement éolien Point de rosée Humidité Vent Precip. Alt. Mise à jour Type